Abaetetuba, Brazil
Current Conditions -  °F | °C
As of 10:00 PM on Saturday 22 Nov 2014 (Local Time) from SBBE Reporting Station
Few Clouds Few Clouds  
Wind Chill: 79°   Ceiling: Unl
Heat Index: 82°   Visibility: 6mi
Dew Point: 72°   Wind: 6mph
Humidity: 78%   Direction: 50°NE
Pressure: 29.85"   Gusts: NA
Location:  1.72°S, 48.88°W
Report Text: SBBE 230100Z 05005KT 9999 FEW020 26/22 Q1011
Loading
Personal Weather Stations






























Interactive Weather Map New forecast layout! Learn more

10-Day Weather Forecast

Advertisements
Track Severe Weather on mobile